Time;durP1;ratioP1;P1;durP2;ratioP2;P2;SDS_P1;SDS_P2;PMS_P1;PMS_P2;Temp;Humidity;BMP_temperature;BMP_pressure;BME280_temperature;BME280_humidity;BME280_pressure;Samples;Min_cycle;Max_cycle;Signal;HPM_P1;HPM_P2
2023/01/23 00:01:04;;;;;;;5.60;2.90;;;1.80;98.00;;;;;;5053815;28;20469;-87
2023/01/23 00:03:31;;;;;;;4.40;3.27;;;1.70;98.00;;;;;;5054018;28;20469;-87
2023/01/23 00:05:59;;;;;;;6.80;3.63;;;1.70;98.00;;;;;;5054029;28;20470;-87
2023/01/23 00:08:26;;;;;;;7.23;4.27;;;1.70;98.00;;;;;;5053909;28;20465;-87
2023/01/23 00:10:53;;;;;;;4.07;2.57;;;1.60;98.00;;;;;;5053241;28;20548;-87
2023/01/23 00:13:22;;;;;;;5.93;2.80;;;1.50;98.00;;;;;;5053995;28;20500;-87
2023/01/23 00:15:49;;;;;;;11.23;4.10;;;1.50;98.00;;;;;;5053991;28;20855;-87
2023/01/23 00:18:17;;;;;;;5.10;3.77;;;1.40;98.00;;;;;;5053695;28;20469;-87
2023/01/23 00:20:44;;;;;;;8.97;3.30;;;1.30;98.00;;;;;;5053208;28;20469;-87
2023/01/23 00:23:11;;;;;;;7.67;4.30;;;1.30;98.00;;;;;;5053945;28;20458;-87
2023/01/23 00:25:39;;;;;;;5.90;3.53;;;1.30;98.00;;;;;;5054121;28;20560;-87
2023/01/23 00:28:06;;;;;;;6.77;3.63;;;1.30;98.00;;;;;;5053631;28;20457;-87
2023/01/23 00:30:34;;;;;;;4.00;3.00;;;1.20;98.00;;;;;;5052931;28;20462;-87
2023/01/23 00:33:01;;;;;;;9.53;3.83;;;1.20;98.00;;;;;;5053457;28;20485;-87
2023/01/23 00:35:29;;;;;;;5.67;3.10;;;1.10;98.00;;;;;;5053452;28;20484;-87
2023/01/23 00:37:56;;;;;;;7.03;4.10;;;1.10;98.00;;;;;;5053313;28;20846;-87
2023/01/23 00:40:23;;;;;;;3.43;2.60;;;1.20;98.00;;;;;;5052857;28;20454;-87
2023/01/23 00:42:50;;;;;;;3.73;2.67;;;1.20;98.00;;;;;;5051833;28;20461;-87
2023/01/23 00:45:18;;;;;;;5.67;3.57;;;1.30;98.00;;;;;;5053137;28;20485;-87
2023/01/23 00:47:46;;;;;;;6.77;3.70;;;1.30;98.00;;;;;;5052921;28;20458;-87
2023/01/23 00:50:13;;;;;;;10.77;4.53;;;1.30;98.00;;;;;;5052700;28;20963;-87
2023/01/23 00:52:41;;;;;;;8.43;4.20;;;1.30;98.00;;;;;;5053507;28;20559;-87
2023/01/23 00:55:09;;;;;;;10.10;4.10;;;1.30;98.00;;;;;;5053084;28;20486;-86
2023/01/23 00:57:36;;;;;;;4.37;3.20;;;1.20;98.00;;;;;;5053013;28;20465;-87
2023/01/23 01:00:04;;;;;;;4.50;2.73;;;1.20;98.00;;;;;;5052252;28;20485;-87
2023/01/23 01:02:31;;;;;;;8.20;3.60;;;1.20;98.00;;;;;;5052846;28;20466;-86
2023/01/23 01:05:00;;;;;;;3.97;2.60;;;1.20;98.00;;;;;;5052868;28;20493;-87
2023/01/23 01:07:27;;;;;;;3.23;2.30;;;1.30;98.00;;;;;;5053001;28;20520;-87
2023/01/23 01:09:54;;;;;;;6.10;3.60;;;1.30;98.00;;;;;;5052109;28;20446;-86
2023/01/23 01:12:21;;;;;;;4.80;2.30;;;1.40;98.00;;;;;;5052694;28;20462;-87
2023/01/23 01:14:48;;;;;;;3.97;2.77;;;1.40;98.00;;;;;;5052611;28;20489;-87
2023/01/23 01:17:15;;;;;;;4.53;3.30;;;1.40;98.00;;;;;;5053117;28;20943;-87
2023/01/23 01:19:42;;;;;;;6.90;3.70;;;1.40;98.00;;;;;;5051810;28;20464;-87
2023/01/23 01:22:10;;;;;;;3.83;2.33;;;1.40;98.00;;;;;;5052884;28;20527;-87
2023/01/23 01:24:37;;;;;;;6.37;3.53;;;1.30;98.00;;;;;;5052868;28;20481;-87
2023/01/23 01:27:04;;;;;;;4.73;3.00;;;1.30;98.00;;;;;;5052714;28;20969;-87
2023/01/23 01:29:32;;;;;;;2.23;1.90;;;1.40;98.00;;;;;;5052146;28;20450;-87
2023/01/23 01:31:59;;;;;;;6.97;3.00;;;1.40;98.00;;;;;;5052312;28;20914;-87
2023/01/23 01:34:26;;;;;;;8.07;3.70;;;1.50;98.00;;;;;;5052487;28;20497;-87
2023/01/23 01:36:54;;;;;;;6.47;3.07;;;1.60;98.00;;;;;;5052286;28;20466;-87
2023/01/23 01:39:22;;;;;;;5.97;3.30;;;1.50;98.00;;;;;;5052021;28;20473;-87
2023/01/23 01:41:49;;;;;;;4.63;2.80;;;1.50;98.00;;;;;;5051185;28;20528;-87
2023/01/23 01:44:18;;;;;;;5.17;2.83;;;1.60;98.00;;;;;;5052318;28;20484;-86
2023/01/23 01:46:45;;;;;;;9.87;2.50;;;1.50;98.00;;;;;;5052349;28;20466;-88
2023/01/23 01:49:16;;;;;;;5.07;2.97;;;1.50;98.00;;;;;;5052647;28;20486;-88
2023/01/23 01:51:49;;;;;;;5.40;3.17;;;1.40;98.00;;;;;;5052129;28;20461;-88
2023/01/23 01:54:24;;;;;;;6.37;2.87;;;1.40;98.00;;;;;;5052852;28;20508;-87
2023/01/23 01:56:57;;;;;;;5.00;3.50;;;1.40;98.00;;;;;;5052313;28;20476;-87
2023/01/23 01:59:28;;;;;;;5.50;3.00;;;1.40;98.00;;;;;;5051889;28;20465;-87
2023/01/23 02:02:03;;;;;;;5.37;3.50;;;1.40;98.00;;;;;;5051513;28;20884;-86
2023/01/23 02:04:31;;;;;;;3.70;2.60;;;1.50;98.00;;;;;;5051928;28;20931;-87
2023/01/23 02:07:00;;;;;;;7.53;3.23;;;1.40;98.00;;;;;;5051784;28;20461;-87
2023/01/23 02:09:32;;;;;;;4.60;2.60;;;1.30;98.00;;;;;;5051496;28;20474;-86
2023/01/23 02:11:59;;;;;;;4.63;2.83;;;1.40;98.00;;;;;;5051338;28;20480;-87
2023/01/23 02:14:27;;;;;;;4.80;2.97;;;1.40;98.00;;;;;;5051579;28;20500;-87
2023/01/23 02:16:58;;;;;;;3.93;3.00;;;1.40;98.00;;;;;;5051541;28;20466;-86
2023/01/23 02:19:37;;;;;;;6.43;3.87;;;1.40;98.00;;;;;;5051515;28;20481;-87
2023/01/23 02:22:17;;;;;;;10.03;3.80;;;1.40;98.00;;;;;;5051729;28;20488;-87
2023/01/23 02:24:54;;;;;;;5.10;2.97;;;1.40;98.00;;;;;;5051519;28;20478;-87
2023/01/23 02:27:23;;;;;;;7.30;3.27;;;1.40;98.00;;;;;;5051665;28;20454;-87
2023/01/23 02:29:51;;;;;;;7.90;3.07;;;1.50;98.00;;;;;;5050706;28;20458;-87
2023/01/23 02:32:23;;;;;;;7.57;3.70;;;1.70;98.00;;;;;;5051470;28;20492;-88
2023/01/23 02:34:54;;;;;;;4.40;2.83;;;1.90;98.00;;;;;;5051472;28;20493;-88
2023/01/23 02:37:24;;;;;;;6.10;3.23;;;1.90;98.00;;;;;;5051248;28;21022;-89
2023/01/23 02:39:51;;;;;;;4.70;2.63;;;1.70;98.00;;;;;;5050309;28;20473;-89
2023/01/23 02:42:18;;;;;;;4.47;2.93;;;1.50;98.00;;;;;;5051334;28;20475;-89
2023/01/23 02:44:47;;;;;;;3.83;3.07;;;1.50;98.00;;;;;;5051915;28;20489;-86
2023/01/23 02:47:14;;;;;;;3.53;2.50;;;1.40;98.00;;;;;;5051449;28;20560;-87
2023/01/23 02:49:41;;;;;;;4.40;2.73;;;1.30;98.00;;;;;;5050390;28;20463;-87
2023/01/23 02:52:09;;;;;;;8.63;2.80;;;1.30;98.00;;;;;;5051320;28;20454;-86
2023/01/23 02:54:36;;;;;;;3.60;2.70;;;1.30;98.00;;;;;;5050746;28;20525;-86
2023/01/23 02:57:03;;;;;;;6.73;3.30;;;1.40;98.00;;;;;;5050893;28;20467;-86
2023/01/23 03:02:24;;;;;;;6.30;2.37;;;1.40;98.00;;;;;;5003581;28;20826;-87
2023/01/23 03:04:51;;;;;;;4.20;2.10;;;1.40;98.00;;;;;;5049909;28;20489;-86
2023/01/23 03:07:18;;;;;;;6.70;4.43;;;1.40;98.00;;;;;;5050956;28;20473;-87
2023/01/23 03:09:47;;;;;;;7.53;3.07;;;1.40;98.00;;;;;;5050051;28;20461;-87
2023/01/23 03:12:14;;;;;;;4.83;2.77;;;1.40;98.00;;;;;;5051419;28;21032;-87
2023/01/23 03:14:42;;;;;;;6.37;4.13;;;1.40;98.00;;;;;;5050567;28;20523;-86
2023/01/23 03:17:09;;;;;;;5.33;2.60;;;1.50;98.00;;;;;;5050832;28;20462;-87
2023/01/23 03:19:38;;;;;;;7.10;4.20;;;1.40;98.00;;;;;;5050127;28;20469;-87
2023/01/23 03:22:06;;;;;;;8.60;3.10;;;1.40;98.00;;;;;;5051083;28;20905;-87
2023/01/23 03:24:34;;;;;;;5.03;3.43;;;1.40;98.00;;;;;;5050980;28;20982;-87
2023/01/23 03:27:01;;;;;;;5.90;3.27;;;1.40;98.00;;;;;;5050998;28;20559;-88
2023/01/23 03:32:14;;;;;;;4.97;2.67;;;1.40;98.00;;;;;;5050777;28;20511;-87
2023/01/23 03:34:43;;;;;;;7.13;3.30;;;1.40;98.00;;;;;;5050309;28;20898;-87
2023/01/23 03:37:12;;;;;;;13.10;3.40;;;1.30;98.00;;;;;;5050563;28;20533;-86
2023/01/23 03:42:23;;;;;;;4.00;3.00;;;1.40;98.00;;;;;;5050536;28;21005;-86
2023/01/23 03:44:51;;;;;;;7.67;3.83;;;1.40;98.00;;;;;;5050372;28;20480;-87
2023/01/23 03:47:19;;;;;;;5.90;3.23;;;1.50;98.00;;;;;;5050403;28;20462;-87
2023/01/23 03:49:48;;;;;;;14.40;4.17;;;1.50;98.00;;;;;;5049730;28;20470;-87
2023/01/23 03:52:15;;;;;;;4.93;3.07;;;1.60;98.00;;;;;;5050355;28;20500;-86
2023/01/23 03:54:42;;;;;;;5.07;3.70;;;1.50;98.00;;;;;;5050323;28;20489;-87
2023/01/23 03:57:10;;;;;;;3.17;2.50;;;1.50;98.00;;;;;;5050463;28;20470;-87
2023/01/23 03:59:37;;;;;;;5.97;3.90;;;1.40;98.00;;;;;;5049727;28;20469;-87
2023/01/23 04:02:04;;;;;;;3.90;2.73;;;1.40;98.00;;;;;;5050244;28;20835;-86
2023/01/23 04:04:32;;;;;;;4.30;2.27;;;1.50;98.00;;;;;;5050224;28;20577;-87
2023/01/23 04:07:00;;;;;;;5.83;3.47;;;1.70;98.00;;;;;;5050080;28;20548;-87
2023/01/23 04:09:27;;;;;;;7.03;3.83;;;1.60;98.00;;;;;;5049819;28;20469;-86
2023/01/23 04:11:55;;;;;;;6.87;3.90;;;1.70;98.00;;;;;;5049479;28;20453;-87
2023/01/23 04:14:22;;;;;;;4.23;2.80;;;1.60;98.00;;;;;;5050238;28;20482;-86
2023/01/23 04:16:49;;;;;;;9.80;4.50;;;1.40;98.00;;;;;;5051983;28;20468;-87
2023/01/23 04:19:18;;;;;;;2.83;2.43;;;1.30;98.00;;;;;;5053744;28;20461;-87
2023/01/23 04:21:45;;;;;;;5.00;2.63;;;1.30;98.00;;;;;;5053315;28;20503;-87
2023/01/23 04:24:14;;;;;;;9.57;3.97;;;1.20;98.00;;;;;;5053824;28;20982;-87
2023/01/23 04:26:41;;;;;;;6.13;3.67;;;1.10;98.00;;;;;;5053554;28;20499;-87
2023/01/23 04:29:08;;;;;;;9.80;3.70;;;1.10;98.00;;;;;;5053668;28;20469;-86
2023/01/23 04:31:35;;;;;;;12.50;3.00;;;1.10;98.00;;;;;;5052985;28;20487;-86
2023/01/23 04:34:03;;;;;;;3.37;2.40;;;1.30;98.00;;;;;;5053760;28;20474;-87
2023/01/23 04:36:30;;;;;;;3.17;2.40;;;1.30;98.00;;;;;;5053624;28;20942;-87
2023/01/23 04:38:57;;;;;;;5.53;2.90;;;1.40;98.00;;;;;;5053409;28;20465;-87
2023/01/23 04:41:28;;;;;;;3.60;3.23;;;1.40;98.00;;;;;;5052980;28;20466;-87
2023/01/23 04:43:55;;;;;;;4.10;2.50;;;1.50;98.00;;;;;;5053145;28;20533;-86
2023/01/23 04:46:22;;;;;;;5.27;3.03;;;1.50;98.00;;;;;;5053337;28;20970;-87
2023/01/23 04:48:49;;;;;;;9.57;3.53;;;1.50;98.00;;;;;;5052883;28;20458;-87
2023/01/23 04:51:16;;;;;;;6.30;2.20;;;1.60;98.00;;;;;;5052440;28;20466;-87
2023/01/23 04:53:43;;;;;;;4.90;3.37;;;1.60;98.00;;;;;;5053267;28;20928;-86
2023/01/23 04:56:10;;;;;;;3.97;2.30;;;1.60;98.00;;;;;;5053031;28;20481;-87
2023/01/23 04:58:38;;;;;;;5.43;2.90;;;1.60;98.00;;;;;;5052999;28;20462;-87
2023/01/23 05:01:07;;;;;;;3.10;1.93;;;1.50;98.00;;;;;;5052495;28;20477;-87
2023/01/23 05:03:34;;;;;;;5.27;2.73;;;1.40;98.00;;;;;;5052828;28;20453;-87
2023/01/23 05:06:01;;;;;;;2.73;2.10;;;1.50;98.00;;;;;;5052965;28;20466;-86
2023/01/23 05:08:28;;;;;;;4.00;2.60;;;1.50;98.00;;;;;;5053058;28;20504;-87
2023/01/23 05:10:55;;;;;;;4.13;2.63;;;1.50;98.00;;;;;;5053170;28;20465;-86
2023/01/23 05:13:23;;;;;;;2.73;2.40;;;1.50;98.00;;;;;;5053568;28;20465;-87
2023/01/23 05:15:51;;;;;;;7.00;3.37;;;1.50;98.00;;;;;;5053670;28;20856;-87
2023/01/23 05:18:18;;;;;;;3.50;2.80;;;1.50;98.00;;;;;;5053588;28;20462;-87
2023/01/23 05:20:45;;;;;;;4.27;2.80;;;1.50;98.00;;;;;;5052414;28;20470;-87
2023/01/23 05:23:12;;;;;;;3.17;2.40;;;1.50;98.00;;;;;;5052725;28;20473;-86
2023/01/23 05:25:39;;;;;;;5.37;3.10;;;1.60;98.00;;;;;;5052971;28;20482;-87
2023/01/23 05:28:06;;;;;;;2.70;1.93;;;1.50;98.00;;;;;;5051779;28;20960;-87
2023/01/23 05:30:33;;;;;;;4.37;2.50;;;1.60;98.00;;;;;;5051933;28;20469;-86
2023/01/23 05:33:02;;;;;;;4.90;3.07;;;1.50;98.00;;;;;;5052218;28;20959;-87
2023/01/23 05:35:29;;;;;;;4.57;3.00;;;1.50;98.00;;;;;;5052282;28;20995;-87
2023/01/23 05:37:56;;;;;;;4.20;2.30;;;1.50;98.00;;;;;;5052345;28;20867;-86
2023/01/23 05:40:24;;;;;;;4.30;3.03;;;1.50;98.00;;;;;;5051865;28;21038;-87
2023/01/23 05:42:51;;;;;;;4.23;2.80;;;1.50;98.00;;;;;;5052153;28;20810;-87
2023/01/23 05:45:18;;;;;;;7.10;3.00;;;1.60;98.00;;;;;;5052113;28;20995;-86
2023/01/23 05:47:46;;;;;;;5.50;2.33;;;1.60;98.00;;;;;;5052126;28;20476;-87
2023/01/23 05:50:16;;;;;;;6.80;3.27;;;1.50;98.00;;;;;;5051324;28;20470;-87
2023/01/23 05:52:44;;;;;;;9.27;2.90;;;1.50;98.00;;;;;;5051995;28;20844;-86
2023/01/23 05:55:12;;;;;;;4.13;2.40;;;1.50;98.00;;;;;;5051994;28;20492;-87
2023/01/23 05:57:39;;;;;;;9.73;3.30;;;1.40;98.00;;;;;;5052041;28;20466;-86
2023/01/23 06:00:07;;;;;;;6.87;3.03;;;1.40;98.00;;;;;;5051266;28;20458;-87
2023/01/23 06:02:34;;;;;;;2.83;2.30;;;1.40;98.00;;;;;;5051635;28;20468;-86
2023/01/23 06:05:01;;;;;;;3.13;2.50;;;1.40;98.00;;;;;;5051553;28;20682;-86
2023/01/23 06:07:30;;;;;;;6.17;3.30;;;1.30;98.00;;;;;;5051937;28;20465;-87
2023/01/23 06:09:58;;;;;;;3.80;2.30;;;1.30;98.00;;;;;;5051052;28;20782;-87
2023/01/23 06:12:25;;;;;;;3.77;2.70;;;1.30;98.00;;;;;;5051592;28;20470;-86
2023/01/23 06:14:52;;;;;;;5.80;2.70;;;1.30;98.00;;;;;;5051587;28;20494;-86
2023/01/23 06:17:19;;;;;;;6.10;3.43;;;1.40;98.00;;;;;;5051516;28;20461;-87
2023/01/23 06:19:47;;;;;;;4.00;2.27;;;1.40;98.00;;;;;;5050698;28;20474;-87
2023/01/23 06:22:14;;;;;;;3.47;1.87;;;1.40;98.00;;;;;;5051677;28;20458;-87
2023/01/23 06:24:42;;;;;;;6.70;2.67;;;1.40;98.00;;;;;;5052019;28;20477;-88
2023/01/23 06:27:09;;;;;;;10.60;3.10;;;1.30;98.00;;;;;;5052028;28;20469;-88
2023/01/23 06:29:37;;;;;;;4.87;2.80;;;1.30;98.00;;;;;;5051588;28;20465;-88
2023/01/23 06:32:05;;;;;;;4.00;2.87;;;1.30;98.00;;;;;;5052144;28;20465;-86
2023/01/23 06:34:32;;;;;;;5.10;2.70;;;1.30;98.00;;;;;;5052615;28;20473;-87
2023/01/23 06:36:59;;;;;;;5.50;3.50;;;1.30;98.00;;;;;;5051540;28;20970;-87
2023/01/23 06:39:26;;;;;;;8.57;2.93;;;1.30;98.00;;;;;;5050901;28;20469;-86
2023/01/23 06:41:55;;;;;;;6.40;3.20;;;1.30;98.00;;;;;;5050506;28;20502;-87
2023/01/23 06:44:22;;;;;;;5.87;3.50;;;1.40;98.00;;;;;;5051135;28;20509;-87
2023/01/23 06:46:49;;;;;;;3.77;2.80;;;1.30;98.00;;;;;;5050938;28;20468;-87
2023/01/23 06:49:16;;;;;;;5.23;2.90;;;1.30;98.00;;;;;;5051201;28;20472;-86
2023/01/23 06:51:44;;;;;;;5.70;3.50;;;1.30;98.00;;;;;;5050549;28;20458;-87
2023/01/23 06:54:11;;;;;;;8.57;3.37;;;1.20;98.00;;;;;;5050886;28;20870;-87
2023/01/23 06:56:38;;;;;;;7.83;4.20;;;1.30;98.00;;;;;;5051185;28;20494;-87
2023/01/23 06:59:06;;;;;;;3.70;2.40;;;1.30;98.00;;;;;;5050884;28;20465;-87
2023/01/23 07:01:33;;;;;;;3.03;2.80;;;1.30;98.00;;;;;;5050851;28;20966;-85
2023/01/23 07:04:00;;;;;;;8.77;2.80;;;1.30;98.00;;;;;;5051150;28;20482;-85
2023/01/23 07:06:36;;;;;;;6.20;3.37;;;1.40;98.00;;;;;;5051568;28;20466;-85
2023/01/23 07:09:04;;;;;;;4.13;2.30;;;1.30;98.00;;;;;;5051374;28;20461;-85
2023/01/23 07:11:30;;;;;;;7.70;3.10;;;1.30;98.00;;;;;;5050743;28;20446;-85
2023/01/23 07:13:57;;;;;;;6.23;3.13;;;1.30;98.00;;;;;;5051500;28;20567;-85
2023/01/23 07:16:38;;;;;;;4.20;2.60;;;1.30;98.00;;;;;;5051785;28;21064;-85
2023/01/23 07:19:07;;;;;;;4.37;2.43;;;1.30;98.00;;;;;;5050240;28;20462;-85
2023/01/23 07:21:35;;;;;;;3.00;1.83;;;1.30;98.00;;;;;;5032067;28;20458;-85
2023/01/23 07:24:03;;;;;;;4.67;3.13;;;1.20;98.00;;;;;;5031971;28;20548;-85
2023/01/23 07:26:31;;;;;;;7.13;2.77;;;1.30;98.00;;;;;;5032859;28;20454;-85
2023/01/23 07:28:59;;;;;;;4.63;3.03;;;1.30;98.00;;;;;;5031572;28;20498;-85
2023/01/23 07:31:26;;;;;;;4.07;2.93;;;1.30;98.00;;;;;;5031063;28;20486;-85
2023/01/23 07:33:55;;;;;;;4.20;2.70;;;1.40;98.00;;;;;;5032338;28;20477;-84
2023/01/23 07:36:22;;;;;;;8.07;3.30;;;1.40;98.00;;;;;;5032371;28;20470;-83
2023/01/23 07:38:50;;;;;;;9.40;3.30;;;1.50;98.00;;;;;;5032215;28;20455;-85
2023/01/23 07:41:17;;;;;;;4.63;2.83;;;1.50;98.00;;;;;;5031645;28;20492;-84
2023/01/23 07:43:44;;;;;;;4.50;2.70;;;1.60;98.00;;;;;;5032079;28;20466;-84
2023/01/23 07:46:16;;;;;;;4.77;3.37;;;1.60;98.00;;;;;;5032045;28;20459;-85
2023/01/23 07:48:55;;;;;;;4.53;2.73;;;1.60;98.00;;;;;;5032811;28;20934;-85
2023/01/23 07:51:33;;;;;;;6.90;2.50;;;1.60;98.00;;;;;;5032733;28;20986;-85
2023/01/23 07:54:02;;;;;;;3.47;2.00;;;1.50;98.00;;;;;;5035764;28;20490;-85
2023/01/23 07:56:29;;;;;;;9.30;3.13;;;1.50;98.00;;;;;;5036347;28;20893;-85
2023/01/23 07:59:12;;;;;;;3.70;2.27;;;1.50;98.00;;;;;;5035966;28;20438;-85
2023/01/23 08:01:39;;;;;;;3.90;2.57;;;1.50;98.00;;;;;;5035488;28;21160;-85
2023/01/23 08:04:15;;;;;;;5.37;3.03;;;1.50;98.00;;;;;;5035973;28;20486;-85
2023/01/23 08:06:46;;;;;;;5.37;3.20;;;1.60;98.00;;;;;;5035866;28;20458;-86
2023/01/23 08:09:13;;;;;;;5.07;2.80;;;1.60;98.00;;;;;;5035483;28;20496;-85
2023/01/23 08:11:40;;;;;;;4.67;2.93;;;1.60;98.00;;;;;;5035269;28;20824;-86
2023/01/23 08:14:07;;;;;;;5.33;3.23;;;1.70;98.00;;;;;;5035545;28;20963;-85
2023/01/23 08:16:46;;;;;;;3.60;2.80;;;1.70;98.00;;;;;;5035423;28;20540;-86
2023/01/23 08:19:17;;;;;;;9.70;4.97;;;1.60;98.00;;;;;;5034833;28;20512;-86
2023/01/23 08:21:46;;;;;;;6.47;3.77;;;1.70;98.00;;;;;;5035061;28;20462;-86
2023/01/23 08:24:14;;;;;;;4.37;2.70;;;1.70;98.00;;;;;;5035792;28;20482;-86
2023/01/23 08:26:42;;;;;;;4.30;3.20;;;1.90;98.00;;;;;;5035124;28;20963;-85
2023/01/23 08:29:09;;;;;;;2.80;2.43;;;2.00;98.00;;;;;;5035106;28;20450;-85
2023/01/23 08:34:30;;;;;;;3.73;2.73;;;2.10;98.00;;;;;;5033613;28;20489;-86
2023/01/23 08:37:35;;;;;;;7.20;3.20;;;2.20;98.00;;;;;;5035429;28;20483;-86
2023/01/23 08:40:05;;;;;;;3.80;2.77;;;2.10;98.00;;;;;;5034491;28;20462;-87
2023/01/23 08:43:14;;;;;;;6.53;3.50;;;2.00;98.00;;;;;;5035153;28;20463;-87
2023/01/23 08:45:42;;;;;;;6.43;3.27;;;2.10;98.00;;;;;;5035365;28;20483;-86
2023/01/23 08:54:32;;;;;;;3.53;2.20;;;2.30;98.00;;;;;;5033982;28;20478;-88
2023/01/23 08:57:00;;;;;;;4.77;2.03;;;2.30;98.00;;;;;;5036170;28;20490;-87
2023/01/23 09:02:35;;;;;;;7.57;3.77;;;2.40;98.00;;;;;;5032677;28;20466;-89
2023/01/23 09:08:10;;;;;;;2.47;2.20;;;2.50;98.00;;;;;;5032317;28;20466;-88
2023/01/23 09:13:21;;;;;;;2.27;1.70;;;2.50;98.00;;;;;;5031024;28;20469;-88
2023/01/23 09:15:49;;;;;;;4.90;2.73;;;2.50;98.00;;;;;;5032276;28;20494;-88
2023/01/23 09:18:17;;;;;;;2.33;1.70;;;2.40;98.00;;;;;;5032421;28;20470;-87
2023/01/23 09:20:48;;;;;;;5.20;3.10;;;2.30;98.00;;;;;;5032542;28;20464;-86
2023/01/23 09:23:32;;;;;;;4.17;2.87;;;2.30;98.00;;;;;;5033169;28;21028;-87
2023/01/23 09:26:18;;;;;;;3.73;2.07;;;2.40;98.00;;;;;;5033222;28;20455;-87
2023/01/23 09:32:30;;;;;;;9.03;4.20;;;2.50;98.00;;;;;;5024047;28;20459;-88
2023/01/23 09:38:17;;;;;;;2.50;2.30;;;2.40;98.00;;;;;;5032173;28;20550;-86
2023/01/23 09:40:59;;;;;;;3.23;2.10;;;2.40;98.00;;;;;;5032720;28;20797;-88
2023/01/23 09:43:38;;;;;;;2.97;2.10;;;2.50;98.00;;;;;;5033220;28;20470;-87
2023/01/23 09:46:13;;;;;;;2.60;2.07;;;2.60;98.00;;;;;;5032941;28;20524;-86
2023/01/23 09:48:53;;;;;;;3.60;2.87;;;2.60;98.00;;;;;;5032220;28;20556;-87
2023/01/23 09:51:37;;;;;;;2.97;2.00;;;2.60;98.00;;;;;;5032086;28;20983;-87
2023/01/23 09:54:32;;;;;;;6.10;2.87;;;2.50;98.00;;;;;;5031873;28;21075;-88
2023/01/23 09:57:14;;;;;;;1.80;1.70;;;2.60;98.00;;;;;;5038824;28;21019;-88
2023/01/23 09:59:49;;;;;;;3.50;2.40;;;2.60;98.00;;;;;;5052383;28;20438;-87
2023/01/23 10:02:19;;;;;;;4.97;2.43;;;2.70;98.00;;;;;;5053487;28;20445;-87
2023/01/23 10:04:49;;;;;;;4.40;3.07;;;2.70;98.00;;;;;;5053555;28;20568;-88
2023/01/23 10:07:58;;;;;;;8.57;2.93;;;2.90;98.00;;;;;;5052627;28;20453;-88
2023/01/23 10:11:01;;;;;;;2.60;2.13;;;3.00;98.00;;;;;;5037055;28;20467;-87
2023/01/23 10:20:30;;;;;;;4.23;3.10;;;3.40;98.00;;;;;;5051046;28;20449;-88
2023/01/23 10:23:09;;;;;;;4.50;2.80;;;3.40;98.00;;;;;;5052307;28;20959;-89
2023/01/23 10:25:39;;;;;;;4.00;2.33;;;3.30;98.00;;;;;;5052651;28;20483;-87
2023/01/23 10:28:18;;;;;;;6.80;3.90;;;3.10;98.00;;;;;;5052631;28;20438;-85
2023/01/23 10:30:50;;;;;;;4.10;2.03;;;3.00;98.00;;;;;;5052541;28;20779;-85
2023/01/23 10:33:18;;;;;;;4.90;2.80;;;2.90;98.00;;;;;;5042245;28;20445;-87
2023/01/23 10:35:50;;;;;;;3.10;2.10;;;2.90;98.00;;;;;;5037295;28;20475;-87
2023/01/23 10:38:30;;;;;;;2.87;2.20;;;2.80;98.00;;;;;;5032337;28;20457;-87
2023/01/23 10:41:18;;;;;;;7.43;3.30;;;2.70;98.00;;;;;;5031788;28;20462;-87
2023/01/23 10:43:49;;;;;;;4.30;3.00;;;2.70;98.00;;;;;;5036887;28;20458;-88
2023/01/23 10:46:20;;;;;;;4.27;2.90;;;2.70;98.00;;;;;;5032293;28;20538;-87
2023/01/23 10:48:50;;;;;;;5.13;2.63;;;2.70;98.00;;;;;;5032278;28;20470;-88
2023/01/23 10:51:45;;;;;;;4.10;2.73;;;2.80;98.00;;;;;;5034226;28;20455;-88
2023/01/23 10:54:17;;;;;;;4.30;2.27;;;2.90;98.00;;;;;;5050749;28;21031;-87
2023/01/23 10:57:23;;;;;;;5.90;2.50;;;3.00;98.00;;;;;;5050549;28;20473;-87
2023/01/23 11:00:07;;;;;;;6.73;2.80;;;3.10;98.00;;;;;;5049918;28;21021;-87
2023/01/23 11:02:36;;;;;;;4.13;2.73;;;3.30;98.00;;;;;;5036847;28;20458;-87
2023/01/23 11:05:36;;;;;;;5.20;2.70;;;3.30;98.00;;;;;;5030444;28;20494;-87
2023/01/23 11:08:23;;;;;;;2.90;1.87;;;3.40;98.00;;;;;;5030325;28;20462;-87
2023/01/23 11:14:07;;;;;;;4.03;3.00;;;3.50;98.00;;;;;;5026280;28;20910;-87
2023/01/23 11:16:36;;;;;;;4.90;3.07;;;3.40;98.00;;;;;;5030848;28;20489;-87
2023/01/23 11:19:18;;;;;;;4.27;2.50;;;3.40;98.00;;;;;;5031603;28;20473;-87
2023/01/23 11:22:08;;;;;;;4.43;2.70;;;3.30;98.00;;;;;;5030449;28;20589;-87
2023/01/23 11:24:38;;;;;;;4.90;2.80;;;3.20;98.00;;;;;;5030663;28;20485;-87
2023/01/23 11:27:28;;;;;;;4.37;2.43;;;3.20;98.00;;;;;;5038463;28;20895;-87
2023/01/23 11:30:27;;;;;;;4.80;2.30;;;3.30;98.00;;;;;;5054119;28;20463;-87
2023/01/23 11:32:58;;;;;;;4.57;2.63;;;3.40;98.00;;;;;;5054197;28;20538;-86
2023/01/23 11:35:37;;;;;;;5.13;2.90;;;3.40;98.00;;;;;;5054812;28;20912;-87
2023/01/23 11:38:06;;;;;;;6.23;4.03;;;3.50;98.00;;;;;;5054743;28;20486;-87
2023/01/23 11:40:34;;;;;;;3.73;2.10;;;3.60;98.00;;;;;;5053954;28;20457;-86
2023/01/23 11:43:01;;;;;;;3.40;1.70;;;3.60;98.00;;;;;;5054566;28;20527;-86
2023/01/23 11:45:43;;;;;;;6.73;3.43;;;3.60;98.00;;;;;;5054498;28;20489;-88
2023/01/23 11:51:37;;;;;;;4.17;2.43;;;3.40;98.00;;;;;;5055284;28;20445;-85
2023/01/23 11:54:21;;;;;;;4.40;3.37;;;3.30;98.00;;;;;;5055514;28;20535;-84
2023/01/23 11:57:02;;;;;;;3.63;2.73;;;3.30;98.00;;;;;;5055511;28;20571;-84
2023/01/23 11:59:47;;;;;;;3.20;2.20;;;3.40;98.00;;;;;;5055530;28;20649;-84
2023/01/23 12:02:54;;;;;;;4.57;2.40;;;3.40;98.00;;;;;;5055948;28;20512;-84
2023/01/23 12:06:09;;;;;;;4.27;2.53;;;3.50;98.00;;;;;;5054406;28;20481;-87
2023/01/23 12:08:43;;;;;;;4.80;3.07;;;3.60;98.00;;;;;;4973768;28;20505;-84
2023/01/23 12:11:15;;;;;;;7.37;3.80;;;3.80;98.00;;;;;;5048972;28;20473;-86
2023/01/23 12:14:04;;;;;;;5.00;2.97;;;4.00;98.00;;;;;;5054379;28;20853;-86
2023/01/23 12:16:47;;;;;;;6.63;3.00;;;4.20;98.00;;;;;;5054162;28;20789;-87
2023/01/23 12:19:26;;;;;;;4.50;2.60;;;4.30;98.00;;;;;;5053805;28;20676;-86
2023/01/23 12:22:00;;;;;;;9.07;4.00;;;4.30;98.00;;;;;;5053794;28;20461;-86
2023/01/23 12:24:41;;;;;;;8.90;3.67;;;4.50;98.00;;;;;;5053964;28;20499;-86
2023/01/23 12:27:18;;;;;;;7.07;3.20;;;4.50;98.00;;;;;;5053937;28;20462;-87
2023/01/23 12:30:08;;;;;;;5.03;3.40;;;4.40;98.00;;;;;;5053050;28;20475;-85
2023/01/23 12:32:53;;;;;;;4.70;2.63;;;4.30;98.00;;;;;;5054421;28;20454;-84
2023/01/23 12:35:34;;;;;;;4.10;3.07;;;4.30;98.00;;;;;;5054997;28;20481;-83
2023/01/23 12:38:18;;;;;;;2.37;2.10;;;4.30;98.00;;;;;;5054643;28;20504;-84
2023/01/23 12:40:52;;;;;;;4.67;2.50;;;4.30;98.00;;;;;;5054051;28;20490;-85
2023/01/23 12:43:34;;;;;;;3.53;2.30;;;4.20;98.00;;;;;;5054550;28;20471;-84
2023/01/23 12:46:08;;;;;;;4.73;2.73;;;4.30;98.00;;;;;;5054511;28;20463;-84
2023/01/23 12:48:44;;;;;;;4.90;2.83;;;4.30;98.00;;;;;;5054459;28;20471;-84
2023/01/23 12:51:20;;;;;;;6.20;2.80;;;4.30;98.00;;;;;;5054235;28;20952;-85
2023/01/23 12:54:23;;;;;;;5.20;2.47;;;4.30;98.00;;;;;;5054483;28;20482;-84
2023/01/23 12:56:51;;;;;;;10.20;3.37;;;4.30;98.00;;;;;;5052726;28;20494;-84
2023/01/23 12:59:33;;;;;;;2.03;1.90;;;4.40;98.00;;;;;;5053975;28;20460;-85
2023/01/23 13:02:41;;;;;;;4.13;2.23;;;4.90;98.00;;;;;;5054364;28;20463;-85
2023/01/23 13:05:58;;;;;;;3.37;2.10;;;5.30;98.00;;;;;;5052981;28;20902;-86
2023/01/23 13:13:19;;;;;;;7.13;2.87;;;5.90;98.00;;;;;;5051133;28;20492;-85
2023/01/23 13:26:10;;;;;;;2.07;1.80;;;5.40;98.00;;;;;;5051533;28;20572;-85
2023/01/23 13:28:42;;;;;;;4.17;2.87;;;5.40;98.00;;;;;;5053191;28;20546;-84
2023/01/23 14:50:00;;;;;;;3.43;2.50;;;4.20;98.00;;;;;;4854445;29;20543;-89
2023/01/23 14:52:28;;;;;;;4.03;2.70;;;4.10;98.00;;;;;;4928055;28;20462;-88
2023/01/23 14:54:57;;;;;;;4.70;2.70;;;4.00;98.00;;;;;;5002656;28;20479;-89
2023/01/23 14:57:26;;;;;;;3.50;2.23;;;4.00;98.00;;;;;;5051298;28;21031;-89
2023/01/23 14:59:56;;;;;;;2.50;2.17;;;3.80;98.00;;;;;;5050081;28;20494;-88
2023/01/23 15:02:29;;;;;;;3.23;2.37;;;3.80;98.00;;;;;;5045277;28;20461;-89
2023/01/23 15:05:26;;;;;;;7.27;3.47;;;3.80;98.00;;;;;;5048450;28;20902;-89
2023/01/23 15:07:56;;;;;;;4.50;3.23;;;3.80;98.00;;;;;;5035728;28;20473;-88
2023/01/23 15:10:25;;;;;;;3.23;2.70;;;3.90;98.00;;;;;;5051489;28;20456;-89
2023/01/23 15:12:55;;;;;;;5.27;2.47;;;3.80;98.00;;;;;;5051329;28;20458;-90
2023/01/23 15:15:25;;;;;;;5.10;2.90;;;3.80;98.00;;;;;;5051249;28;20487;-90
2023/01/23 15:17:53;;;;;;;3.20;2.00;;;3.80;98.00;;;;;;5051521;28;20510;-90
2023/01/23 15:20:40;;;;;;;4.80;3.17;;;3.80;98.00;;;;;;5050385;28;20469;-90
2023/01/23 15:23:36;;;;;;;3.40;2.47;;;3.80;98.00;;;;;;5052175;28;20468;-87
2023/01/23 15:26:12;;;;;;;6.23;3.10;;;3.80;98.00;;;;;;5028560;28;20539;-90
2023/01/23 15:28:41;;;;;;;5.23;3.20;;;3.90;98.00;;;;;;5052167;28;20465;-89
2023/01/23 15:31:25;;;;;;;3.47;2.37;;;3.90;98.00;;;;;;5053027;28;20454;-90
2023/01/23 15:34:10;;;;;;;3.03;2.50;;;3.90;98.00;;;;;;5054057;28;20458;-88
2023/01/23 15:36:40;;;;;;;7.67;3.87;;;3.90;98.00;;;;;;5051244;28;20536;-88
2023/01/23 15:39:18;;;;;;;4.43;2.97;;;3.90;98.00;;;;;;5052398;28;20475;-88
2023/01/23 15:41:49;;;;;;;8.73;3.40;;;3.90;98.00;;;;;;5052264;28;20466;-89
2023/01/23 15:44:20;;;;;;;6.23;3.23;;;3.90;98.00;;;;;;5052669;28;20510;-89